sensor_id;sensor_type;location;lat;lon;timestamp;pressure;altitude;pressure_sealevel;temperature;humidity
9189;BME280;34313;50.780;6.084;2022-11-09T00:02:13;98653.59;;;13.18;78.30
9189;BME280;34313;50.780;6.084;2022-11-09T00:04:39;98648.00;;;13.21;78.02
9189;BME280;34313;50.780;6.084;2022-11-09T00:07:04;98655.47;;;13.28;77.86
9189;BME280;34313;50.780;6.084;2022-11-09T00:09:29;98630.72;;;13.17;78.05
9189;BME280;34313;50.780;6.084;2022-11-09T00:11:55;98620.72;;;13.21;77.39
9189;BME280;34313;50.780;6.084;2022-11-09T00:14:20;98625.06;;;13.22;77.77
9189;BME280;34313;50.780;6.084;2022-11-09T00:16:45;98624.91;;;13.23;77.41
9189;BME280;34313;50.780;6.084;2022-11-09T00:19:11;98631.53;;;13.29;77.53
9189;BME280;34313;50.780;6.084;2022-11-09T00:21:39;98617.88;;;13.13;77.66
9189;BME280;34313;50.780;6.084;2022-11-09T00:24:05;98628.31;;;13.14;77.76
9189;BME280;34313;50.780;6.084;2022-11-09T00:26:30;98641.31;;;13.17;77.84
9189;BME280;34313;50.780;6.084;2022-11-09T00:28:56;98627.13;;;13.18;78.02
9189;BME280;34313;50.780;6.084;2022-11-09T00:31:23;98637.72;;;13.18;77.86
9189;BME280;34313;50.780;6.084;2022-11-09T00:33:55;98629.56;;;13.10;78.74
9189;BME280;34313;50.780;6.084;2022-11-09T00:36:22;98628.38;;;13.03;79.39
9189;BME280;34313;50.780;6.084;2022-11-09T00:38:54;98630.25;;;13.12;79.26
9189;BME280;34313;50.780;6.084;2022-11-09T00:41:21;98620.91;;;13.08;79.43
9189;BME280;34313;50.780;6.084;2022-11-09T00:43:47;98642.78;;;13.10;79.78
9189;BME280;34313;50.780;6.084;2022-11-09T00:46:13;98647.03;;;13.01;79.95
9189;BME280;34313;50.780;6.084;2022-11-09T00:48:39;98640.91;;;13.01;80.17
9189;BME280;34313;50.780;6.084;2022-11-09T00:51:04;98637.16;;;13.03;80.04
9189;BME280;34313;50.780;6.084;2022-11-09T00:53:30;98643.56;;;13.01;80.18
9189;BME280;34313;50.780;6.084;2022-11-09T00:56:03;98648.63;;;12.93;80.55
9189;BME280;34313;50.780;6.084;2022-11-09T00:58:31;98645.16;;;12.92;81.17
9189;BME280;34313;50.780;6.084;2022-11-09T01:00:57;98651.03;;;12.96;80.79
9189;BME280;34313;50.780;6.084;2022-11-09T01:03:24;98646.69;;;12.95;80.55
9189;BME280;34313;50.780;6.084;2022-11-09T01:05:49;98647.03;;;12.90;80.84
9189;BME280;34313;50.780;6.084;2022-11-09T01:08:15;98640.97;;;12.78;81.35
9189;BME280;34313;50.780;6.084;2022-11-09T01:10:43;98648.41;;;12.84;81.19
9189;BME280;34313;50.780;6.084;2022-11-09T01:13:11;98648.31;;;12.75;81.57
9189;BME280;34313;50.780;6.084;2022-11-09T01:15:41;98647.38;;;12.64;82.36
9189;BME280;34313;50.780;6.084;2022-11-09T01:18:07;98646.88;;;12.71;81.74
9189;BME280;34313;50.780;6.084;2022-11-09T01:20:32;98652.03;;;12.72;82.18
9189;BME280;34313;50.780;6.084;2022-11-09T01:22:58;98664.78;;;12.67;82.32
9189;BME280;34313;50.780;6.084;2022-11-09T01:25:23;98664.91;;;12.65;82.21
9189;BME280;34313;50.780;6.084;2022-11-09T01:27:49;98648.31;;;12.63;82.43
9189;BME280;34313;50.780;6.084;2022-11-09T01:30:14;98654.00;;;12.59;82.48
9189;BME280;34313;50.780;6.084;2022-11-09T01:32:39;98656.41;;;12.51;83.11
9189;BME280;34313;50.780;6.084;2022-11-09T01:35:05;98652.31;;;12.58;83.04
9189;BME280;34313;50.780;6.084;2022-11-09T01:37:30;98639.69;;;12.61;82.56
9189;BME280;34313;50.780;6.084;2022-11-09T01:39:56;98646.97;;;12.69;82.54
9189;BME280;34313;50.780;6.084;2022-11-09T01:42:24;98645.81;;;12.62;82.58
9189;BME280;34313;50.780;6.084;2022-11-09T01:45:23;98649.53;;;12.59;82.64
9189;BME280;34313;50.780;6.084;2022-11-09T01:48:13;98637.41;;;12.57;82.66
9189;BME280;34313;50.780;6.084;2022-11-09T01:51:04;98642.31;;;12.61;82.76
9189;BME280;34313;50.780;6.084;2022-11-09T01:53:33;98647.63;;;12.61;82.83
9189;BME280;34313;50.780;6.084;2022-11-09T01:56:02;98642.97;;;12.54;83.20
9189;BME280;34313;50.780;6.084;2022-11-09T01:58:43;98651.25;;;12.49;83.73
9189;BME280;34313;50.780;6.084;2022-11-09T02:01:11;98645.38;;;12.45;83.58
9189;BME280;34313;50.780;6.084;2022-11-09T02:03:48;98649.91;;;12.55;83.52
9189;BME280;34313;50.780;6.084;2022-11-09T02:06:17;98635.63;;;12.46;83.72
9189;BME280;34313;50.780;6.084;2022-11-09T02:08:47;98647.16;;;12.45;83.57
9189;BME280;34313;50.780;6.084;2022-11-09T02:11:16;98647.88;;;12.47;83.76
9189;BME280;34313;50.780;6.084;2022-11-09T02:14:01;98654.00;;;12.47;83.74
9189;BME280;34313;50.780;6.084;2022-11-09T02:16:27;98647.66;;;12.39;83.63
9189;BME280;34313;50.780;6.084;2022-11-09T02:18:56;98647.06;;;12.46;83.77
9189;BME280;34313;50.780;6.084;2022-11-09T02:21:23;98642.13;;;12.42;83.90
9189;BME280;34313;50.780;6.084;2022-11-09T02:23:50;98651.25;;;12.49;83.75
9189;BME280;34313;50.780;6.084;2022-11-09T02:26:20;98650.41;;;12.37;84.31
9189;BME280;34313;50.780;6.084;2022-11-09T02:28:48;98643.56;;;12.35;84.40
9189;BME280;34313;50.780;6.084;2022-11-09T02:31:14;98643.94;;;12.41;83.97
9189;BME280;34313;50.780;6.084;2022-11-09T02:33:43;98641.41;;;12.28;84.67
9189;BME280;34313;50.780;6.084;2022-11-09T02:36:08;98643.47;;;12.36;84.43
9189;BME280;34313;50.780;6.084;2022-11-09T02:38:34;98649.56;;;12.37;84.48
9189;BME280;34313;50.780;6.084;2022-11-09T02:40:59;98645.47;;;12.44;84.62
9189;BME280;34313;50.780;6.084;2022-11-09T02:43:25;98649.69;;;12.46;83.97
9189;BME280;34313;50.780;6.084;2022-11-09T02:45:50;98651.84;;;12.53;83.85
9189;BME280;34313;50.780;6.084;2022-11-09T02:48:16;98662.72;;;12.71;83.25
9189;BME280;34313;50.780;6.084;2022-11-09T02:50:41;98652.38;;;12.79;82.79
9189;BME280;34313;50.780;6.084;2022-11-09T02:53:06;98657.19;;;12.85;82.48
9189;BME280;34313;50.780;6.084;2022-11-09T02:55:32;98657.25;;;12.95;82.05
9189;BME280;34313;50.780;6.084;2022-11-09T02:57:57;98645.44;;;12.99;81.61
9189;BME280;34313;50.780;6.084;2022-11-09T03:00:22;98644.16;;;12.93;81.48
9189;BME280;34313;50.780;6.084;2022-11-09T03:02:48;98652.50;;;12.89;82.04
9189;BME280;34313;50.780;6.084;2022-11-09T03:05:13;98655.50;;;12.84;82.01
9189;BME280;34313;50.780;6.084;2022-11-09T03:07:39;98645.28;;;12.79;81.68
9189;BME280;34313;50.780;6.084;2022-11-09T03:10:04;98654.78;;;12.82;81.98
9189;BME280;34313;50.780;6.084;2022-11-09T03:12:30;98650.56;;;12.79;81.77
9189;BME280;34313;50.780;6.084;2022-11-09T03:14:59;98648.50;;;12.83;81.79
9189;BME280;34313;50.780;6.084;2022-11-09T03:17:26;98643.81;;;12.86;81.19
9189;BME280;34313;50.780;6.084;2022-11-09T03:19:52;98654.19;;;12.78;81.21
9189;BME280;34313;50.780;6.084;2022-11-09T03:22:17;98662.72;;;12.82;80.84
9189;BME280;34313;50.780;6.084;2022-11-09T03:24:43;98660.19;;;12.80;80.94
9189;BME280;34313;50.780;6.084;2022-11-09T03:27:08;98665.25;;;12.83;80.77
9189;BME280;34313;50.780;6.084;2022-11-09T03:29:34;98660.19;;;12.80;80.66
9189;BME280;34313;50.780;6.084;2022-11-09T03:31:59;98662.38;;;12.75;81.03
9189;BME280;34313;50.780;6.084;2022-11-09T03:34:25;98665.00;;;12.75;81.01
9189;BME280;34313;50.780;6.084;2022-11-09T03:36:50;98679.94;;;12.76;81.10
9189;BME280;34313;50.780;6.084;2022-11-09T03:39:16;98672.00;;;12.76;80.97
9189;BME280;34313;50.780;6.084;2022-11-09T03:41:41;98672.44;;;12.81;80.97
9189;BME280;34313;50.780;6.084;2022-11-09T03:44:06;98678.47;;;12.83;80.90
9189;BME280;34313;50.780;6.084;2022-11-09T03:46:32;98688.28;;;12.81;81.14
9189;BME280;34313;50.780;6.084;2022-11-09T03:48:57;98697.44;;;12.89;80.71
9189;BME280;34313;50.780;6.084;2022-11-09T03:51:23;98695.97;;;12.96;80.69
9189;BME280;34313;50.780;6.084;2022-11-09T03:53:48;98700.53;;;13.05;80.61
9189;BME280;34313;50.780;6.084;2022-11-09T03:56:13;98694.53;;;13.03;80.87
9189;BME280;34313;50.780;6.084;2022-11-09T03:58:39;98693.53;;;13.04;81.16
9189;BME280;34313;50.780;6.084;2022-11-09T04:01:04;98702.91;;;13.08;80.91
9189;BME280;34313;50.780;6.084;2022-11-09T04:03:29;98703.03;;;13.07;81.02
9189;BME280;34313;50.780;6.084;2022-11-09T04:05:57;98688.47;;;13.12;81.08
9189;BME280;34313;50.780;6.084;2022-11-09T04:08:22;98702.03;;;13.19;81.14
9189;BME280;34313;50.780;6.084;2022-11-09T04:10:48;98706.94;;;13.23;81.90
9189;BME280;34313;50.780;6.084;2022-11-09T04:13:13;98709.72;;;13.22;82.49
9189;BME280;34313;50.780;6.084;2022-11-09T04:15:38;98705.97;;;13.24;82.93
9189;BME280;34313;50.780;6.084;2022-11-09T04:18:04;98703.47;;;13.23;83.08
9189;BME280;34313;50.780;6.084;2022-11-09T04:20:30;98703.81;;;13.30;82.98
9189;BME280;34313;50.780;6.084;2022-11-09T04:22:57;98697.81;;;13.28;82.84
9189;BME280;34313;50.780;6.084;2022-11-09T04:25:24;98711.28;;;13.24;83.10
9189;BME280;34313;50.780;6.084;2022-11-09T04:27:54;98699.97;;;13.22;82.77
9189;BME280;34313;50.780;6.084;2022-11-09T04:30:19;98703.34;;;13.24;82.83
9189;BME280;34313;50.780;6.084;2022-11-09T04:32:46;98709.84;;;13.20;83.10
9189;BME280;34313;50.780;6.084;2022-11-09T04:35:11;98706.09;;;13.23;82.83
9189;BME280;34313;50.780;6.084;2022-11-09T04:37:36;98708.41;;;13.16;83.10
9189;BME280;34313;50.780;6.084;2022-11-09T04:40:02;98707.44;;;13.17;83.38
9189;BME280;34313;50.780;6.084;2022-11-09T04:42:27;98717.22;;;13.17;83.40
9189;BME280;34313;50.780;6.084;2022-11-09T04:44:52;98721.97;;;13.23;83.32
9189;BME280;34313;50.780;6.084;2022-11-09T04:47:18;98733.03;;;13.28;83.27
9189;BME280;34313;50.780;6.084;2022-11-09T04:49:43;98741.81;;;13.29;84.35
9189;BME280;34313;50.780;6.084;2022-11-09T04:52:08;98740.84;;;13.30;85.06
9189;BME280;34313;50.780;6.084;2022-11-09T04:54:34;98740.97;;;13.28;85.91
9189;BME280;34313;50.780;6.084;2022-11-09T04:56:59;98737.97;;;13.21;86.47
9189;BME280;34313;50.780;6.084;2022-11-09T04:59:24;98743.19;;;13.12;87.56
9189;BME280;34313;50.780;6.084;2022-11-09T05:01:50;98740.66;;;13.10;88.16
9189;BME280;34313;50.780;6.084;2022-11-09T05:04:15;98748.84;;;13.07;88.79
9189;BME280;34313;50.780;6.084;2022-11-09T05:06:40;98742.25;;;13.01;89.34
9189;BME280;34313;50.780;6.084;2022-11-09T05:09:06;98739.72;;;13.00;90.59
9189;BME280;34313;50.780;6.084;2022-11-09T05:11:33;98736.25;;;12.88;92.00
9189;BME280;34313;50.780;6.084;2022-11-09T05:13:59;98750.19;;;12.90;92.16
9189;BME280;34313;50.780;6.084;2022-11-09T05:16:25;98746.88;;;12.77;92.45
9189;BME280;34313;50.780;6.084;2022-11-09T05:18:54;98741.44;;;12.67;93.61
9189;BME280;34313;50.780;6.084;2022-11-09T05:21:20;98744.59;;;12.61;93.70
9189;BME280;34313;50.780;6.084;2022-11-09T05:23:45;98742.78;;;12.61;93.82
9189;BME280;34313;50.780;6.084;2022-11-09T05:26:35;98746.03;;;12.54;94.61
9189;BME280;34313;50.780;6.084;2022-11-09T05:29:03;98741.34;;;12.46;95.75
9189;BME280;34313;50.780;6.084;2022-11-09T05:31:29;98721.16;;;12.34;96.04
9189;BME280;34313;50.780;6.084;2022-11-09T05:33:55;98731.34;;;12.27;96.50
9189;BME280;34313;50.780;6.084;2022-11-09T05:36:21;98739.88;;;12.19;97.23
9189;BME280;34313;50.780;6.084;2022-11-09T05:38:46;98728.34;;;12.09;97.03
9189;BME280;34313;50.780;6.084;2022-11-09T05:41:12;98735.28;;;11.99;96.05
9189;BME280;34313;50.780;6.084;2022-11-09T05:43:37;98734.16;;;11.90;95.95
9189;BME280;34313;50.780;6.084;2022-11-09T05:46:03;98732.41;;;11.90;95.07
9189;BME280;34313;50.780;6.084;2022-11-09T05:48:28;98730.06;;;11.75;95.93
9189;BME280;34313;50.780;6.084;2022-11-09T05:50:54;98732.81;;;11.73;96.28
9189;BME280;34313;50.780;6.084;2022-11-09T05:53:19;98737.47;;;11.69;97.02
9189;BME280;34313;50.780;6.084;2022-11-09T05:55:45;98736.50;;;11.70;97.27
9189;BME280;34313;50.780;6.084;2022-11-09T05:58:10;98730.50;;;11.68;97.82
9189;BME280;34313;50.780;6.084;2022-11-09T06:00:35;98723.19;;;11.72;97.74
9189;BME280;34313;50.780;6.084;2022-11-09T06:03:06;98722.50;;;11.81;97.55
9189;BME280;34313;50.780;6.084;2022-11-09T06:05:32;98731.09;;;11.72;98.57
9189;BME280;34313;50.780;6.084;2022-11-09T06:08:09;98738.75;;;11.64;99.45
9189;BME280;34313;50.780;6.084;2022-11-09T06:10:35;98741.66;;;11.72;99.38
9189;BME280;34313;50.780;6.084;2022-11-09T06:13:01;98736.38;;;11.72;99.58
9189;BME280;34313;50.780;6.084;2022-11-09T06:15:26;98747.00;;;11.83;98.78
9189;BME280;34313;50.780;6.084;2022-11-09T06:17:56;98746.53;;;11.89;98.37
9189;BME280;34313;50.780;6.084;2022-11-09T06:20:22;98747.88;;;11.95;97.85
9189;BME280;34313;50.780;6.084;2022-11-09T06:22:56;98745.50;;;12.03;97.26
9189;BME280;34313;50.780;6.084;2022-11-09T06:25:22;98740.69;;;11.97;97.09
9189;BME280;34313;50.780;6.084;2022-11-09T06:27:48;98741.56;;;11.85;97.34
9189;BME280;34313;50.780;6.084;2022-11-09T06:30:14;98754.16;;;11.81;97.66
9189;BME280;34313;50.780;6.084;2022-11-09T06:32:40;98755.53;;;11.87;97.29
9189;BME280;34313;50.780;6.084;2022-11-09T06:35:05;98750.91;;;11.78;96.90
9189;BME280;34313;50.780;6.084;2022-11-09T06:37:31;98765.13;;;11.88;96.47
9189;BME280;34313;50.780;6.084;2022-11-09T06:39:56;98769.78;;;11.84;97.20
9189;BME280;34313;50.780;6.084;2022-11-09T06:42:21;98766.91;;;11.87;96.61
9189;BME280;34313;50.780;6.084;2022-11-09T06:44:47;98770.50;;;11.75;97.00
9189;BME280;34313;50.780;6.084;2022-11-09T06:47:12;98776.75;;;11.85;97.00
9189;BME280;34313;50.780;6.084;2022-11-09T06:49:37;98767.97;;;11.73;96.91
9189;BME280;34313;50.780;6.084;2022-11-09T06:52:03;98775.16;;;11.71;97.16
9189;BME280;34313;50.780;6.084;2022-11-09T06:54:28;98775.03;;;11.73;97.00
9189;BME280;34313;50.780;6.084;2022-11-09T06:56:54;98763.13;;;11.67;96.79
9189;BME280;34313;50.780;6.084;2022-11-09T06:59:20;98787.84;;;11.66;96.45
9189;BME280;34313;50.780;6.084;2022-11-09T07:01:45;98785.16;;;11.55;97.13
9189;BME280;34313;50.780;6.084;2022-11-09T07:04:12;98787.34;;;11.61;96.39
9189;BME280;34313;50.780;6.084;2022-11-09T07:06:39;98788.41;;;11.59;95.90
9189;BME280;34313;50.780;6.084;2022-11-09T07:09:05;98784.53;;;11.51;96.64
9189;BME280;34313;50.780;6.084;2022-11-09T07:11:30;98788.75;;;11.54;96.45
9189;BME280;34313;50.780;6.084;2022-11-09T07:13:56;98790.78;;;11.50;96.76
9189;BME280;34313;50.780;6.084;2022-11-09T07:16:21;98788.25;;;11.49;96.71
9189;BME280;34313;50.780;6.084;2022-11-09T07:18:46;98785.84;;;11.46;96.65
9189;BME280;34313;50.780;6.084;2022-11-09T07:21:12;98789.81;;;11.51;96.41
9189;BME280;34313;50.780;6.084;2022-11-09T07:23:37;98784.72;;;11.61;95.95
9189;BME280;34313;50.780;6.084;2022-11-09T07:26:03;98800.94;;;11.68;95.30
9189;BME280;34313;50.780;6.084;2022-11-09T07:28:28;98790.88;;;11.73;94.97
9189;BME280;34313;50.780;6.084;2022-11-09T07:30:56;98780.94;;;11.77;94.65
9189;BME280;34313;50.780;6.084;2022-11-09T07:33:21;98795.19;;;11.98;93.77
9189;BME280;34313;50.780;6.084;2022-11-09T07:35:47;98802.56;;;12.17;93.40
9189;BME280;34313;50.780;6.084;2022-11-09T07:38:13;98799.38;;;12.36;92.38
9189;BME280;34313;50.780;6.084;2022-11-09T07:40:40;98801.78;;;12.51;90.88
9189;BME280;34313;50.780;6.084;2022-11-09T07:43:05;98813.19;;;12.74;90.32
9189;BME280;34313;50.780;6.084;2022-11-09T07:45:32;98813.66;;;12.90;88.90
9189;BME280;34313;50.780;6.084;2022-11-09T07:47:59;98811.25;;;12.98;87.56
9189;BME280;34313;50.780;6.084;2022-11-09T07:50:26;98818.00;;;13.14;86.44
9189;BME280;34313;50.780;6.084;2022-11-09T07:52:51;98810.41;;;13.20;85.41
9189;BME280;34313;50.780;6.084;2022-11-09T07:55:16;98815.56;;;13.33;84.41
9189;BME280;34313;50.780;6.084;2022-11-09T07:57:42;98814.50;;;13.36;83.50
9189;BME280;34313;50.780;6.084;2022-11-09T08:00:09;98819.84;;;13.57;82.43
9189;BME280;34313;50.780;6.084;2022-11-09T08:02:35;98820.16;;;13.75;80.74
9189;BME280;34313;50.780;6.084;2022-11-09T08:05:00;98814.88;;;13.96;79.90
9189;BME280;34313;50.780;6.084;2022-11-09T08:07:25;98805.13;;;14.38;77.17
9189;BME280;34313;50.780;6.084;2022-11-09T08:09:51;98819.09;;;14.92;74.95
9189;BME280;34313;50.780;6.084;2022-11-09T08:12:16;98819.75;;;15.35;72.67
9189;BME280;34313;50.780;6.084;2022-11-09T08:14:41;98818.81;;;15.56;70.43
9189;BME280;34313;50.780;6.084;2022-11-09T08:17:07;98827.41;;;15.98;68.33
9189;BME280;34313;50.780;6.084;2022-11-09T08:19:32;98809.63;;;16.09;67.03
9189;BME280;34313;50.780;6.084;2022-11-09T08:21:58;98833.13;;;16.33;65.87
9189;BME280;34313;50.780;6.084;2022-11-09T08:24:24;98827.78;;;16.33;64.77
9189;BME280;34313;50.780;6.084;2022-11-09T08:26:49;98832.44;;;16.21;65.07
9189;BME280;34313;50.780;6.084;2022-11-09T08:29:14;98832.56;;;16.29;64.06
9189;BME280;34313;50.780;6.084;2022-11-09T08:31:40;98837.44;;;16.34;63.60
9189;BME280;34313;50.780;6.084;2022-11-09T08:34:10;98853.97;;;16.18;62.67
9189;BME280;34313;50.780;6.084;2022-11-09T08:36:36;98834.78;;;16.34;62.33
9189;BME280;34313;50.780;6.084;2022-11-09T08:39:02;98848.97;;;16.15;62.72
9189;BME280;34313;50.780;6.084;2022-11-09T08:41:27;98833.25;;;16.21;62.42
9189;BME280;34313;50.780;6.084;2022-11-09T08:43:53;98847.53;;;16.30;61.92
9189;BME280;34313;50.780;6.084;2022-11-09T08:46:18;98853.38;;;16.34;61.97
9189;BME280;34313;50.780;6.084;2022-11-09T08:48:44;98847.34;;;16.51;61.39
9189;BME280;34313;50.780;6.084;2022-11-09T08:51:12;98868.66;;;16.41;60.99
9189;BME280;34313;50.780;6.084;2022-11-09T08:53:37;98860.56;;;16.23;60.65
9189;BME280;34313;50.780;6.084;2022-11-09T08:56:06;98860.28;;;16.17;61.16
9189;BME280;34313;50.780;6.084;2022-11-09T08:58:32;98858.44;;;16.07;61.57
9189;BME280;34313;50.780;6.084;2022-11-09T09:00:58;98858.88;;;16.22;61.18
9189;BME280;34313;50.780;6.084;2022-11-09T09:03:23;98859.66;;;16.52;60.23
9189;BME280;34313;50.780;6.084;2022-11-09T09:05:48;98862.06;;;16.55;59.67
9189;BME280;34313;50.780;6.084;2022-11-09T09:08:14;98863.03;;;16.54;59.75
9189;BME280;34313;50.780;6.084;2022-11-09T09:10:40;98864.31;;;16.40;59.84
9189;BME280;34313;50.780;6.084;2022-11-09T09:13:06;98845.56;;;16.22;60.35
9189;BME280;34313;50.780;6.084;2022-11-09T09:15:31;98860.16;;;16.18;60.57
9189;BME280;34313;50.780;6.084;2022-11-09T09:18:02;98851.91;;;15.92;60.65
9189;BME280;34313;50.780;6.084;2022-11-09T09:20:27;98860.13;;;15.79;62.03
9189;BME280;34313;50.780;6.084;2022-11-09T09:22:52;98865.38;;;15.60;62.78
9189;BME280;34313;50.780;6.084;2022-11-09T09:25:18;98865.91;;;15.44;62.39
9189;BME280;34313;50.780;6.084;2022-11-09T09:27:44;98875.81;;;15.42;62.35
9189;BME280;34313;50.780;6.084;2022-11-09T09:30:10;98876.59;;;15.13;63.02
9189;BME280;34313;50.780;6.084;2022-11-09T09:32:35;98892.19;;;15.06;63.04
9189;BME280;34313;50.780;6.084;2022-11-09T09:35:01;98888.09;;;15.02;63.04
9189;BME280;34313;50.780;6.084;2022-11-09T09:37:26;98880.94;;;14.93;63.45
9189;BME280;34313;50.780;6.084;2022-11-09T09:39:51;98883.59;;;14.93;63.43
9189;BME280;34313;50.780;6.084;2022-11-09T09:42:26;98878.19;;;14.73;63.91
9189;BME280;34313;50.780;6.084;2022-11-09T09:47:51;98897.13;;;14.48;65.18
9189;BME280;34313;50.780;6.084;2022-11-09T09:50:21;98898.16;;;14.35;65.62
9189;BME280;34313;50.780;6.084;2022-11-09T09:52:56;98905.72;;;14.40;65.90
9189;BME280;34313;50.780;6.084;2022-11-09T09:55:36;98916.13;;;14.53;65.67
9189;BME280;34313;50.780;6.084;2022-11-09T09:58:15;98907.59;;;14.61;65.01
9189;BME280;34313;50.780;6.084;2022-11-09T10:00:43;98922.84;;;14.68;64.68
9189;BME280;34313;50.780;6.084;2022-11-09T10:03:17;98914.88;;;14.68;64.29
9189;BME280;34313;50.780;6.084;2022-11-09T10:08:54;98928.56;;;14.52;64.44
9189;BME280;34313;50.780;6.084;2022-11-09T10:11:41;98920.97;;;14.48;64.18
9189;BME280;34313;50.780;6.084;2022-11-09T10:17:38;98927.81;;;14.62;64.33
9189;BME280;34313;50.780;6.084;2022-11-09T10:25:23;98931.91;;;15.18;62.43
9189;BME280;34313;50.780;6.084;2022-11-09T10:27:55;98936.84;;;15.32;61.89
9189;BME280;34313;50.780;6.084;2022-11-09T10:30:22;98944.53;;;15.25;61.44
9189;BME280;34313;50.780;6.084;2022-11-09T10:32:50;98932.84;;;15.38;61.04
9189;BME280;34313;50.780;6.084;2022-11-09T10:35:29;98939.25;;;15.35;61.15
9189;BME280;34313;50.780;6.084;2022-11-09T10:37:58;98941.16;;;15.23;61.52
9189;BME280;34313;50.780;6.084;2022-11-09T10:57:16;98934.94;;;14.82;61.41
9189;BME280;34313;50.780;6.084;2022-11-09T10:59:50;98949.59;;;14.86;61.83
9189;BME280;34313;50.780;6.084;2022-11-09T11:02:40;98938.81;;;14.78;61.54
9189;BME280;34313;50.780;6.084;2022-11-09T11:07:33;98955.19;;;14.62;61.77
9189;BME280;34313;50.780;6.084;2022-11-09T11:12:44;98953.38;;;14.84;60.83
9189;BME280;34313;50.780;6.084;2022-11-09T11:15:28;98944.38;;;14.75;60.89
9189;BME280;34313;50.780;6.084;2022-11-09T11:18:09;98948.66;;;14.87;60.77
9189;BME280;34313;50.780;6.084;2022-11-09T11:20:37;98938.38;;;14.94;60.79
9189;BME280;34313;50.780;6.084;2022-11-09T11:23:16;98934.56;;;15.18;60.17
9189;BME280;34313;50.780;6.084;2022-11-09T11:30:45;98949.78;;;15.16;59.47
9189;BME280;34313;50.780;6.084;2022-11-09T11:33:13;98950.75;;;15.15;59.41
9189;BME280;34313;50.780;6.084;2022-11-09T11:35:48;98945.91;;;14.99;60.07
9189;BME280;34313;50.780;6.084;2022-11-09T11:38:37;98962.34;;;15.13;60.12
9189;BME280;34313;50.780;6.084;2022-11-09T11:46:44;98965.00;;;15.13;59.69
9189;BME280;34313;50.780;6.084;2022-11-09T11:49:33;98965.03;;;15.23;59.41
9189;BME280;34313;50.780;6.084;2022-11-09T11:57:40;98963.81;;;15.27;59.54
9189;BME280;34313;50.780;6.084;2022-11-09T12:00:10;98949.47;;;15.09;60.09
9189;BME280;34313;50.780;6.084;2022-11-09T12:03:04;98957.41;;;15.09;60.17
9189;BME280;34313;50.780;6.084;2022-11-09T12:05:47;98958.16;;;14.90;60.47
9189;BME280;34313;50.780;6.084;2022-11-09T12:11:42;98964.69;;;14.86;60.66
9189;BME280;34313;50.780;6.084;2022-11-09T12:17:27;98970.25;;;14.83;60.69
9189;BME280;34313;50.780;6.084;2022-11-09T12:25:32;98974.94;;;14.69;61.44
9189;BME280;34313;50.780;6.084;2022-11-09T12:30:51;98984.50;;;14.82;61.32
9189;BME280;34313;50.780;6.084;2022-11-09T12:36:36;98967.72;;;14.81;60.20
9189;BME280;34313;50.780;6.084;2022-11-09T12:39:13;98967.16;;;14.78;60.15
9189;BME280;34313;50.780;6.084;2022-11-09T12:41:41;98974.03;;;14.80;60.01
9189;BME280;34313;50.780;6.084;2022-11-09T12:44:47;98964.25;;;14.81;59.86
9189;BME280;34313;50.780;6.084;2022-11-09T12:47:23;98976.25;;;14.85;60.56
9189;BME280;34313;50.780;6.084;2022-11-09T12:49:51;98985.09;;;14.85;60.42
9189;BME280;34313;50.780;6.084;2022-11-09T12:52:21;98979.91;;;14.84;60.73
9189;BME280;34313;50.780;6.084;2022-11-09T12:54:51;98981.53;;;14.96;60.48
9189;BME280;34313;50.780;6.084;2022-11-09T12:57:22;98984.50;;;15.03;60.31
9189;BME280;34313;50.780;6.084;2022-11-09T12:59:49;98993.56;;;15.00;60.21
9189;BME280;34313;50.780;6.084;2022-11-09T13:02:27;98983.34;;;14.96;60.20
9189;BME280;34313;50.780;6.084;2022-11-09T13:05:02;98995.50;;;14.98;60.30
9189;BME280;34313;50.780;6.084;2022-11-09T13:09:58;98985.22;;;15.05;59.45
9189;BME280;34313;50.780;6.084;2022-11-09T13:12:33;98984.97;;;15.08;59.19
9189;BME280;34313;50.780;6.084;2022-11-09T13:15:28;98979.06;;;15.04;59.08
9189;BME280;34313;50.780;6.084;2022-11-09T13:18:01;98989.28;;;15.09;59.34
9189;BME280;34313;50.780;6.084;2022-11-09T13:23:01;98991.03;;;14.99;59.59
9189;BME280;34313;50.780;6.084;2022-11-09T13:25:44;98988.44;;;15.08;59.26
9189;BME280;34313;50.780;6.084;2022-11-09T13:30:53;98994.06;;;15.15;59.34
9189;BME280;34313;50.780;6.084;2022-11-09T13:33:31;98988.50;;;15.18;59.75
9189;BME280;34313;50.780;6.084;2022-11-09T13:36:11;98980.53;;;15.18;59.39
9189;BME280;34313;50.780;6.084;2022-11-09T13:38:38;98987.47;;;15.09;59.41
9189;BME280;34313;50.780;6.084;2022-11-09T13:44:24;98989.72;;;15.14;59.22
9189;BME280;34313;50.780;6.084;2022-11-09T13:46:50;98987.19;;;15.12;58.73
9189;BME280;34313;50.780;6.084;2022-11-09T13:49:43;98994.06;;;15.15;58.74
9189;BME280;34313;50.780;6.084;2022-11-09T13:52:45;98986.28;;;15.02;59.21
9189;BME280;34313;50.780;6.084;2022-11-09T13:55:23;98999.31;;;14.84;60.17
9189;BME280;34313;50.780;6.084;2022-11-09T13:57:50;99002.03;;;14.73;60.63
9189;BME280;34313;50.780;6.084;2022-11-09T14:00:19;99007.50;;;14.60;61.44
9189;BME280;34313;50.780;6.084;2022-11-09T14:03:15;99004.41;;;14.44;61.32
9189;BME280;34313;50.780;6.084;2022-11-09T14:05:41;99009.25;;;14.38;61.72
9189;BME280;34313;50.780;6.084;2022-11-09T14:08:29;99022.03;;;14.33;62.21
9189;BME280;34313;50.780;6.084;2022-11-09T14:11:10;99022.47;;;14.50;62.15
9189;BME280;34313;50.780;6.084;2022-11-09T14:14:02;99019.59;;;14.42;62.38
9189;BME280;34313;50.780;6.084;2022-11-09T14:17:01;99034.34;;;14.34;63.00
9189;BME280;34313;50.780;6.084;2022-11-09T14:22:17;99034.38;;;14.12;64.83
9189;BME280;34313;50.780;6.084;2022-11-09T14:24:44;99039.09;;;13.97;65.81
9189;BME280;34313;50.780;6.084;2022-11-09T14:32:33;99035.38;;;13.88;66.83
9189;BME280;34313;50.780;6.084;2022-11-09T14:37:46;99033.97;;;13.73;67.57
9189;BME280;34313;50.780;6.084;2022-11-09T14:40:23;99031.16;;;13.63;67.62
9189;BME280;34313;50.780;6.084;2022-11-09T14:42:53;99044.75;;;13.58;67.52
9189;BME280;34313;50.780;6.084;2022-11-09T14:45:20;99060.16;;;13.53;68.11
9189;BME280;34313;50.780;6.084;2022-11-09T14:47:48;99055.25;;;13.49;68.25
9189;BME280;34313;50.780;6.084;2022-11-09T14:50:21;99067.38;;;13.40;68.73
9189;BME280;34313;50.780;6.084;2022-11-09T14:52:48;99070.50;;;13.34;69.03